sensor_id;sensor_type;location;lat;lon;timestamp;P1;durP1;ratioP1;P2;durP2;ratioP2
51602;SDS011;37954;51.980;5.850;2023-07-22T00:00:30;8.30;;;6.45;;
51602;SDS011;37954;51.980;5.850;2023-07-22T00:04:42;7.15;;;5.28;;
51602;SDS011;37954;51.980;5.850;2023-07-22T00:08:54;9.23;;;5.97;;
51602;SDS011;37954;51.980;5.850;2023-07-22T00:13:06;7.45;;;6.03;;
51602;SDS011;37954;51.980;5.850;2023-07-22T00:17:18;8.23;;;5.55;;
51602;SDS011;37954;51.980;5.850;2023-07-22T00:21:32;8.85;;;5.28;;
51602;SDS011;37954;51.980;5.850;2023-07-22T00:25:48;6.28;;;5.07;;
51602;SDS011;37954;51.980;5.850;2023-07-22T00:30:00;5.55;;;4.72;;
51602;SDS011;37954;51.980;5.850;2023-07-22T00:34:12;5.45;;;4.75;;
51602;SDS011;37954;51.980;5.850;2023-07-22T00:38:24;5.72;;;4.68;;
51602;SDS011;37954;51.980;5.850;2023-07-22T00:42:35;7.60;;;5.05;;
51602;SDS011;37954;51.980;5.850;2023-07-22T00:46:47;5.75;;;4.50;;
51602;SDS011;37954;51.980;5.850;2023-07-22T00:51:00;8.85;;;4.80;;
51602;SDS011;37954;51.980;5.850;2023-07-22T00:55:11;4.78;;;4.28;;
51602;SDS011;37954;51.980;5.850;2023-07-22T00:59:26;6.70;;;4.80;;
51602;SDS011;37954;51.980;5.850;2023-07-22T01:03:39;7.45;;;4.38;;
51602;SDS011;37954;51.980;5.850;2023-07-22T01:07:52;6.70;;;4.93;;
51602;SDS011;37954;51.980;5.850;2023-07-22T01:12:04;8.52;;;5.07;;
51602;SDS011;37954;51.980;5.850;2023-07-22T01:16:17;7.15;;;4.93;;
51602;SDS011;37954;51.980;5.850;2023-07-22T01:20:29;7.00;;;5.13;;
51602;SDS011;37954;51.980;5.850;2023-07-22T01:24:41;5.30;;;4.80;;
51602;SDS011;37954;51.980;5.850;2023-07-22T01:29:03;6.57;;;5.03;;
51602;SDS011;37954;51.980;5.850;2023-07-22T01:33:16;5.57;;;4.70;;
51602;SDS011;37954;51.980;5.850;2023-07-22T01:37:28;6.10;;;4.40;;
51602;SDS011;37954;51.980;5.850;2023-07-22T01:41:40;7.03;;;5.55;;
51602;SDS011;37954;51.980;5.850;2023-07-22T01:45:52;10.52;;;6.15;;
51602;SDS011;37954;51.980;5.850;2023-07-22T01:50:04;10.75;;;7.32;;
51602;SDS011;37954;51.980;5.850;2023-07-22T01:54:17;13.20;;;7.82;;
51602;SDS011;37954;51.980;5.850;2023-07-22T01:58:29;10.80;;;7.78;;
51602;SDS011;37954;51.980;5.850;2023-07-22T02:02:41;13.23;;;8.00;;
51602;SDS011;37954;51.980;5.850;2023-07-22T02:06:53;11.48;;;8.02;;
51602;SDS011;37954;51.980;5.850;2023-07-22T02:11:06;12.90;;;8.60;;
51602;SDS011;37954;51.980;5.850;2023-07-22T02:15:20;12.32;;;8.20;;
51602;SDS011;37954;51.980;5.850;2023-07-22T02:19:33;12.50;;;8.38;;
51602;SDS011;37954;51.980;5.850;2023-07-22T02:23:45;11.05;;;7.60;;
51602;SDS011;37954;51.980;5.850;2023-07-22T02:27:56;13.57;;;8.68;;
51602;SDS011;37954;51.980;5.850;2023-07-22T02:32:08;12.68;;;8.57;;
51602;SDS011;37954;51.980;5.850;2023-07-22T02:36:20;10.63;;;7.53;;
51602;SDS011;37954;51.980;5.850;2023-07-22T02:40:34;11.70;;;7.90;;
51602;SDS011;37954;51.980;5.850;2023-07-22T02:44:46;12.15;;;8.07;;
51602;SDS011;37954;51.980;5.850;2023-07-22T02:48:58;12.48;;;7.97;;
51602;SDS011;37954;51.980;5.850;2023-07-22T02:53:10;9.82;;;7.68;;
51602;SDS011;37954;51.980;5.850;2023-07-22T02:57:22;15.27;;;8.27;;
51602;SDS011;37954;51.980;5.850;2023-07-22T03:01:33;10.45;;;7.60;;
51602;SDS011;37954;51.980;5.850;2023-07-22T03:05:45;11.23;;;7.90;;
51602;SDS011;37954;51.980;5.850;2023-07-22T03:09:58;10.88;;;7.95;;
51602;SDS011;37954;51.980;5.850;2023-07-22T03:14:10;10.30;;;7.03;;
51602;SDS011;37954;51.980;5.850;2023-07-22T03:18:22;12.32;;;8.18;;
51602;SDS011;37954;51.980;5.850;2023-07-22T03:22:34;11.27;;;8.68;;
51602;SDS011;37954;51.980;5.850;2023-07-22T03:26:46;13.68;;;8.85;;
51602;SDS011;37954;51.980;5.850;2023-07-22T03:30:57;12.43;;;8.82;;
51602;SDS011;37954;51.980;5.850;2023-07-22T03:35:09;13.20;;;8.80;;
51602;SDS011;37954;51.980;5.850;2023-07-22T03:39:23;14.23;;;9.05;;
51602;SDS011;37954;51.980;5.850;2023-07-22T03:43:34;11.93;;;8.98;;
51602;SDS011;37954;51.980;5.850;2023-07-22T03:47:50;17.52;;;9.57;;
51602;SDS011;37954;51.980;5.850;2023-07-22T03:52:03;14.10;;;10.23;;
51602;SDS011;37954;51.980;5.850;2023-07-22T03:56:15;16.23;;;10.40;;
51602;SDS011;37954;51.980;5.850;2023-07-22T04:00:27;15.40;;;9.98;;
51602;SDS011;37954;51.980;5.850;2023-07-22T04:04:38;13.40;;;9.68;;
51602;SDS011;37954;51.980;5.850;2023-07-22T04:08:51;15.70;;;10.02;;
51602;SDS011;37954;51.980;5.850;2023-07-22T04:13:03;14.63;;;9.57;;
51602;SDS011;37954;51.980;5.850;2023-07-22T04:17:15;15.35;;;10.10;;
51602;SDS011;37954;51.980;5.850;2023-07-22T04:21:27;12.77;;;9.93;;
51602;SDS011;37954;51.980;5.850;2023-07-22T04:25:48;14.10;;;9.35;;
51602;SDS011;37954;51.980;5.850;2023-07-22T04:29:59;15.48;;;9.98;;
51602;SDS011;37954;51.980;5.850;2023-07-22T04:34:11;13.07;;;9.70;;
51602;SDS011;37954;51.980;5.850;2023-07-22T04:38:24;15.88;;;10.15;;
51602;SDS011;37954;51.980;5.850;2023-07-22T04:42:35;14.20;;;9.93;;
51602;SDS011;37954;51.980;5.850;2023-07-22T04:46:47;12.88;;;9.55;;
51602;SDS011;37954;51.980;5.850;2023-07-22T04:50:59;15.70;;;10.63;;
51602;SDS011;37954;51.980;5.850;2023-07-22T04:55:11;14.73;;;9.32;;
51602;SDS011;37954;51.980;5.850;2023-07-22T04:59:23;15.73;;;11.25;;
51602;SDS011;37954;51.980;5.850;2023-07-22T05:03:34;17.67;;;10.90;;
51602;SDS011;37954;51.980;5.850;2023-07-22T05:07:47;18.55;;;11.65;;
51602;SDS011;37954;51.980;5.850;2023-07-22T05:12:00;18.65;;;11.60;;
51602;SDS011;37954;51.980;5.850;2023-07-22T05:16:12;16.17;;;10.80;;
51602;SDS011;37954;51.980;5.850;2023-07-22T05:20:24;15.38;;;10.50;;
51602;SDS011;37954;51.980;5.850;2023-07-22T05:24:36;16.98;;;11.25;;
51602;SDS011;37954;51.980;5.850;2023-07-22T05:28:48;15.48;;;10.77;;
51602;SDS011;37954;51.980;5.850;2023-07-22T05:32:59;16.20;;;11.60;;
51602;SDS011;37954;51.980;5.850;2023-07-22T05:37:11;18.50;;;11.70;;
51602;SDS011;37954;51.980;5.850;2023-07-22T05:41:23;18.50;;;11.68;;
51602;SDS011;37954;51.980;5.850;2023-07-22T05:45:35;17.92;;;11.48;;
51602;SDS011;37954;51.980;5.850;2023-07-22T05:49:46;17.35;;;11.57;;
51602;SDS011;37954;51.980;5.850;2023-07-22T05:53:58;18.05;;;11.27;;
51602;SDS011;37954;51.980;5.850;2023-07-22T05:58:16;14.90;;;11.23;;
51602;SDS011;37954;51.980;5.850;2023-07-22T06:02:29;16.88;;;11.45;;
51602;SDS011;37954;51.980;5.850;2023-07-22T06:06:41;16.17;;;11.27;;
51602;SDS011;37954;51.980;5.850;2023-07-22T06:10:52;16.23;;;11.25;;
51602;SDS011;37954;51.980;5.850;2023-07-22T06:15:04;15.02;;;9.40;;
51602;SDS011;37954;51.980;5.850;2023-07-22T06:19:18;16.23;;;10.35;;
51602;SDS011;37954;51.980;5.850;2023-07-22T06:23:30;17.98;;;10.65;;
51602;SDS011;37954;51.980;5.850;2023-07-22T06:27:41;18.38;;;10.70;;
51602;SDS011;37954;51.980;5.850;2023-07-22T06:31:53;18.40;;;11.50;;
51602;SDS011;37954;51.980;5.850;2023-07-22T06:36:05;15.45;;;10.48;;
51602;SDS011;37954;51.980;5.850;2023-07-22T06:40:17;15.00;;;10.10;;
51602;SDS011;37954;51.980;5.850;2023-07-22T06:44:29;17.88;;;11.07;;
51602;SDS011;37954;51.980;5.850;2023-07-22T06:48:42;14.52;;;9.88;;
51602;SDS011;37954;51.980;5.850;2023-07-22T06:52:53;17.77;;;11.13;;
51602;SDS011;37954;51.980;5.850;2023-07-22T06:57:05;15.45;;;11.57;;
51602;SDS011;37954;51.980;5.850;2023-07-22T07:01:17;20.45;;;9.80;;
51602;SDS011;37954;51.980;5.850;2023-07-22T07:05:29;14.90;;;9.57;;
51602;SDS011;37954;51.980;5.850;2023-07-22T07:09:41;15.52;;;10.25;;
51602;SDS011;37954;51.980;5.850;2023-07-22T07:13:53;13.45;;;9.07;;
51602;SDS011;37954;51.980;5.850;2023-07-22T07:18:05;13.13;;;9.98;;
51602;SDS011;37954;51.980;5.850;2023-07-22T07:22:17;13.18;;;9.80;;
51602;SDS011;37954;51.980;5.850;2023-07-22T07:26:29;14.40;;;9.38;;
51602;SDS011;37954;51.980;5.850;2023-07-22T07:30:40;12.98;;;9.48;;
51602;SDS011;37954;51.980;5.850;2023-07-22T07:34:52;12.30;;;8.80;;
51602;SDS011;37954;51.980;5.850;2023-07-22T07:39:04;12.38;;;8.07;;
51602;SDS011;37954;51.980;5.850;2023-07-22T07:43:16;11.73;;;7.90;;
51602;SDS011;37954;51.980;5.850;2023-07-22T07:47:27;10.65;;;8.18;;
51602;SDS011;37954;51.980;5.850;2023-07-22T07:51:39;10.07;;;7.57;;
51602;SDS011;37954;51.980;5.850;2023-07-22T07:55:51;11.05;;;7.50;;
51602;SDS011;37954;51.980;5.850;2023-07-22T08:00:03;10.90;;;7.22;;
51602;SDS011;37954;51.980;5.850;2023-07-22T08:04:16;10.27;;;7.10;;
51602;SDS011;37954;51.980;5.850;2023-07-22T08:08:29;9.05;;;6.88;;
51602;SDS011;37954;51.980;5.850;2023-07-22T08:12:41;7.72;;;6.07;;
51602;SDS011;37954;51.980;5.850;2023-07-22T08:16:53;8.48;;;6.75;;
51602;SDS011;37954;51.980;5.850;2023-07-22T08:21:06;8.13;;;6.03;;
51602;SDS011;37954;51.980;5.850;2023-07-22T08:25:19;8.65;;;6.13;;
51602;SDS011;37954;51.980;5.850;2023-07-22T08:29:30;7.30;;;5.82;;
51602;SDS011;37954;51.980;5.850;2023-07-22T08:33:42;8.85;;;6.32;;
51602;SDS011;37954;51.980;5.850;2023-07-22T08:37:54;9.25;;;6.38;;
51602;SDS011;37954;51.980;5.850;2023-07-22T08:42:06;9.60;;;6.93;;
51602;SDS011;37954;51.980;5.850;2023-07-22T08:46:20;8.63;;;6.55;;
51602;SDS011;37954;51.980;5.850;2023-07-22T08:50:55;8.55;;;6.70;;
51602;SDS011;37954;51.980;5.850;2023-07-22T08:55:14;10.13;;;6.60;;
51602;SDS011;37954;51.980;5.850;2023-07-22T08:59:26;10.82;;;6.63;;
51602;SDS011;37954;51.980;5.850;2023-07-22T09:03:38;8.55;;;6.68;;
51602;SDS011;37954;51.980;5.850;2023-07-22T09:07:52;10.88;;;6.13;;
51602;SDS011;37954;51.980;5.850;2023-07-22T09:12:04;7.63;;;5.65;;
51602;SDS011;37954;51.980;5.850;2023-07-22T09:16:17;10.43;;;5.85;;
51602;SDS011;37954;51.980;5.850;2023-07-22T09:20:30;6.85;;;4.70;;
51602;SDS011;37954;51.980;5.850;2023-07-22T09:24:42;7.10;;;4.97;;
51602;SDS011;37954;51.980;5.850;2023-07-22T09:28:54;6.57;;;4.60;;
51602;SDS011;37954;51.980;5.850;2023-07-22T09:33:19;6.63;;;4.60;;
51602;SDS011;37954;51.980;5.850;2023-07-22T09:37:36;7.22;;;4.50;;
51602;SDS011;37954;51.980;5.850;2023-07-22T09:41:49;10.45;;;4.38;;
51602;SDS011;37954;51.980;5.850;2023-07-22T09:46:05;6.13;;;4.57;;
51602;SDS011;37954;51.980;5.850;2023-07-22T09:50:37;4.43;;;4.03;;
51602;SDS011;37954;51.980;5.850;2023-07-22T09:54:49;8.32;;;4.70;;
51602;SDS011;37954;51.980;5.850;2023-07-22T09:59:04;7.75;;;4.90;;
51602;SDS011;37954;51.980;5.850;2023-07-22T10:03:19;5.05;;;3.85;;
51602;SDS011;37954;51.980;5.850;2023-07-22T10:07:33;6.70;;;3.80;;
51602;SDS011;37954;51.980;5.850;2023-07-22T10:11:48;4.68;;;4.18;;
51602;SDS011;37954;51.980;5.850;2023-07-22T10:16:00;9.75;;;4.13;;
51602;SDS011;37954;51.980;5.850;2023-07-22T10:20:13;4.40;;;3.72;;
51602;SDS011;37954;51.980;5.850;2023-07-22T10:24:26;5.50;;;4.10;;
51602;SDS011;37954;51.980;5.850;2023-07-22T10:28:43;5.70;;;4.38;;
51602;SDS011;37954;51.980;5.850;2023-07-22T10:32:56;6.03;;;4.03;;
51602;SDS011;37954;51.980;5.850;2023-07-22T10:37:11;5.10;;;3.97;;
51602;SDS011;37954;51.980;5.850;2023-07-22T10:41:23;6.25;;;4.18;;
51602;SDS011;37954;51.980;5.850;2023-07-22T10:45:42;4.45;;;3.80;;
51602;SDS011;37954;51.980;5.850;2023-07-22T10:50:06;7.60;;;3.45;;
51602;SDS011;37954;51.980;5.850;2023-07-22T10:54:32;5.30;;;3.70;;
51602;SDS011;37954;51.980;5.850;2023-07-22T11:03:31;5.70;;;3.75;;
51602;SDS011;37954;51.980;5.850;2023-07-22T11:07:43;6.40;;;3.45;;
51602;SDS011;37954;51.980;5.850;2023-07-22T11:16:10;3.88;;;3.40;;
51602;SDS011;37954;51.980;5.850;2023-07-22T11:20:23;4.15;;;2.83;;
51602;SDS011;37954;51.980;5.850;2023-07-22T11:24:35;4.72;;;2.95;;
51602;SDS011;37954;51.980;5.850;2023-07-22T11:28:48;4.97;;;3.00;;
51602;SDS011;37954;51.980;5.850;2023-07-22T11:33:00;4.40;;;3.10;;
51602;SDS011;37954;51.980;5.850;2023-07-22T11:37:11;7.10;;;3.40;;
51602;SDS011;37954;51.980;5.850;2023-07-22T11:41:24;4.78;;;2.80;;
51602;SDS011;37954;51.980;5.850;2023-07-22T11:45:37;4.40;;;3.30;;
51602;SDS011;37954;51.980;5.850;2023-07-22T11:49:50;3.78;;;2.97;;
51602;SDS011;37954;51.980;5.850;2023-07-22T11:54:01;4.63;;;2.70;;
51602;SDS011;37954;51.980;5.850;2023-07-22T11:58:14;13.60;;;2.75;;
51602;SDS011;37954;51.980;5.850;2023-07-22T12:02:35;5.80;;;2.58;;
51602;SDS011;37954;51.980;5.850;2023-07-22T12:06:48;3.08;;;2.50;;
51602;SDS011;37954;51.980;5.850;2023-07-22T12:11:00;2.78;;;2.25;;
51602;SDS011;37954;51.980;5.850;2023-07-22T12:15:13;4.00;;;2.45;;
51602;SDS011;37954;51.980;5.850;2023-07-22T12:19:29;5.03;;;2.25;;
51602;SDS011;37954;51.980;5.850;2023-07-22T12:23:45;3.95;;;2.45;;
51602;SDS011;37954;51.980;5.850;2023-07-22T12:27:57;3.05;;;2.20;;
51602;SDS011;37954;51.980;5.850;2023-07-22T12:32:09;2.67;;;2.17;;
51602;SDS011;37954;51.980;5.850;2023-07-22T12:36:21;7.43;;;2.65;;
51602;SDS011;37954;51.980;5.850;2023-07-22T12:40:33;5.00;;;2.20;;
51602;SDS011;37954;51.980;5.850;2023-07-22T12:44:45;2.92;;;2.35;;
51602;SDS011;37954;51.980;5.850;2023-07-22T12:48:57;5.93;;;2.92;;
51602;SDS011;37954;51.980;5.850;2023-07-22T12:53:09;2.83;;;2.30;;
51602;SDS011;37954;51.980;5.850;2023-07-22T12:57:21;7.90;;;2.90;;
51602;SDS011;37954;51.980;5.850;2023-07-22T13:01:33;3.88;;;2.80;;
51602;SDS011;37954;51.980;5.850;2023-07-22T13:05:46;3.53;;;2.75;;
51602;SDS011;37954;51.980;5.850;2023-07-22T13:10:00;3.13;;;2.78;;
51602;SDS011;37954;51.980;5.850;2023-07-22T13:14:14;3.20;;;2.63;;
51602;SDS011;37954;51.980;5.850;2023-07-22T13:18:26;5.05;;;2.95;;
51602;SDS011;37954;51.980;5.850;2023-07-22T13:22:38;3.83;;;2.72;;
51602;SDS011;37954;51.980;5.850;2023-07-22T13:26:51;6.82;;;2.90;;
51602;SDS011;37954;51.980;5.850;2023-07-22T13:31:02;2.95;;;2.50;;
51602;SDS011;37954;51.980;5.850;2023-07-22T13:35:14;2.90;;;2.60;;
51602;SDS011;37954;51.980;5.850;2023-07-22T13:39:26;3.53;;;2.35;;
51602;SDS011;37954;51.980;5.850;2023-07-22T13:43:37;4.40;;;2.88;;
51602;SDS011;37954;51.980;5.850;2023-07-22T13:47:49;2.45;;;2.25;;
51602;SDS011;37954;51.980;5.850;2023-07-22T13:52:01;2.85;;;2.20;;
51602;SDS011;37954;51.980;5.850;2023-07-22T13:56:14;3.70;;;2.65;;
51602;SDS011;37954;51.980;5.850;2023-07-22T14:00:25;3.03;;;2.65;;
51602;SDS011;37954;51.980;5.850;2023-07-22T14:04:37;3.65;;;2.88;;
51602;SDS011;37954;51.980;5.850;2023-07-22T14:08:49;3.42;;;2.63;;
51602;SDS011;37954;51.980;5.850;2023-07-22T14:13:02;4.00;;;2.63;;
51602;SDS011;37954;51.980;5.850;2023-07-22T14:17:14;8.05;;;3.28;;
51602;SDS011;37954;51.980;5.850;2023-07-22T14:21:26;3.83;;;2.85;;
51602;SDS011;37954;51.980;5.850;2023-07-22T14:25:38;3.65;;;2.38;;
51602;SDS011;37954;51.980;5.850;2023-07-22T14:29:50;4.65;;;3.35;;
51602;SDS011;37954;51.980;5.850;2023-07-22T14:34:02;4.45;;;2.70;;
51602;SDS011;37954;51.980;5.850;2023-07-22T14:38:14;2.85;;;2.10;;
51602;SDS011;37954;51.980;5.850;2023-07-22T14:42:26;3.58;;;2.53;;
51602;SDS011;37954;51.980;5.850;2023-07-22T14:46:38;5.50;;;2.60;;
51602;SDS011;37954;51.980;5.850;2023-07-22T14:50:49;3.22;;;2.47;;
51602;SDS011;37954;51.980;5.850;2023-07-22T14:55:01;3.70;;;2.38;;
51602;SDS011;37954;51.980;5.850;2023-07-22T14:59:14;2.60;;;2.30;;
51602;SDS011;37954;51.980;5.850;2023-07-22T15:03:27;4.13;;;2.45;;
51602;SDS011;37954;51.980;5.850;2023-07-22T15:07:39;4.80;;;2.60;;
51602;SDS011;37954;51.980;5.850;2023-07-22T15:11:50;3.28;;;2.20;;
51602;SDS011;37954;51.980;5.850;2023-07-22T15:16:02;3.47;;;2.13;;
51602;SDS011;37954;51.980;5.850;2023-07-22T15:20:14;2.60;;;1.95;;
51602;SDS011;37954;51.980;5.850;2023-07-22T15:24:26;1.95;;;1.77;;
51602;SDS011;37954;51.980;5.850;2023-07-22T15:28:37;4.90;;;2.40;;
51602;SDS011;37954;51.980;5.850;2023-07-22T15:32:51;2.10;;;1.85;;
51602;SDS011;37954;51.980;5.850;2023-07-22T15:37:03;2.00;;;1.85;;
51602;SDS011;37954;51.980;5.850;2023-07-22T15:41:15;4.05;;;1.88;;
51602;SDS011;37954;51.980;5.850;2023-07-22T15:45:27;5.80;;;3.50;;
51602;SDS011;37954;51.980;5.850;2023-07-22T15:49:39;6.63;;;2.25;;
51602;SDS011;37954;51.980;5.850;2023-07-22T15:53:51;3.92;;;2.47;;
51602;SDS011;37954;51.980;5.850;2023-07-22T15:58:02;2.30;;;1.88;;
51602;SDS011;37954;51.980;5.850;2023-07-22T16:02:14;3.25;;;2.15;;
51602;SDS011;37954;51.980;5.850;2023-07-22T16:06:26;5.85;;;2.20;;
51602;SDS011;37954;51.980;5.850;2023-07-22T16:10:44;6.00;;;2.10;;
51602;SDS011;37954;51.980;5.850;2023-07-22T16:14:56;4.07;;;2.33;;
51602;SDS011;37954;51.980;5.850;2023-07-22T16:19:09;3.53;;;2.40;;
51602;SDS011;37954;51.980;5.850;2023-07-22T16:23:21;4.05;;;2.13;;
51602;SDS011;37954;51.980;5.850;2023-07-22T16:27:32;2.40;;;2.20;;
51602;SDS011;37954;51.980;5.850;2023-07-22T16:31:44;3.25;;;2.20;;
51602;SDS011;37954;51.980;5.850;2023-07-22T16:35:57;3.55;;;2.15;;
51602;SDS011;37954;51.980;5.850;2023-07-22T16:40:09;2.08;;;1.88;;
51602;SDS011;37954;51.980;5.850;2023-07-22T16:44:22;2.13;;;1.85;;
51602;SDS011;37954;51.980;5.850;2023-07-22T16:48:34;4.68;;;2.15;;
51602;SDS011;37954;51.980;5.850;2023-07-22T16:52:46;5.47;;;1.88;;
51602;SDS011;37954;51.980;5.850;2023-07-22T16:56:58;4.18;;;2.03;;
51602;SDS011;37954;51.980;5.850;2023-07-22T17:01:10;2.42;;;2.20;;
51602;SDS011;37954;51.980;5.850;2023-07-22T17:05:22;5.72;;;2.00;;
51602;SDS011;37954;51.980;5.850;2023-07-22T17:09:34;3.63;;;1.88;;
51602;SDS011;37954;51.980;5.850;2023-07-22T17:13:46;3.72;;;2.30;;
51602;SDS011;37954;51.980;5.850;2023-07-22T17:17:58;2.47;;;1.95;;
51602;SDS011;37954;51.980;5.850;2023-07-22T17:22:09;5.05;;;2.40;;
51602;SDS011;37954;51.980;5.850;2023-07-22T17:26:21;3.60;;;2.05;;
51602;SDS011;37954;51.980;5.850;2023-07-22T17:30:33;3.25;;;1.98;;
51602;SDS011;37954;51.980;5.850;2023-07-22T17:34:45;3.25;;;2.22;;
51602;SDS011;37954;51.980;5.850;2023-07-22T17:38:58;7.47;;;5.22;;
51602;SDS011;37954;51.980;5.850;2023-07-22T17:43:10;19.67;;;14.25;;
51602;SDS011;37954;51.980;5.850;2023-07-22T17:47:26;5.18;;;3.20;;
51602;SDS011;37954;51.980;5.850;2023-07-22T17:51:37;2.90;;;2.55;;
51602;SDS011;37954;51.980;5.850;2023-07-22T17:55:50;3.50;;;2.42;;
51602;SDS011;37954;51.980;5.850;2023-07-22T18:00:01;4.15;;;2.50;;
51602;SDS011;37954;51.980;5.850;2023-07-22T18:04:21;6.28;;;2.97;;
51602;SDS011;37954;51.980;5.850;2023-07-22T18:08:33;3.03;;;2.17;;
51602;SDS011;37954;51.980;5.850;2023-07-22T18:12:44;2.40;;;2.20;;
51602;SDS011;37954;51.980;5.850;2023-07-22T18:16:56;2.63;;;1.95;;
51602;SDS011;37954;51.980;5.850;2023-07-22T18:21:08;4.50;;;2.35;;
51602;SDS011;37954;51.980;5.850;2023-07-22T18:25:20;2.85;;;2.20;;
51602;SDS011;37954;51.980;5.850;2023-07-22T18:29:31;3.05;;;2.10;;
51602;SDS011;37954;51.980;5.850;2023-07-22T18:33:43;2.70;;;2.03;;
51602;SDS011;37954;51.980;5.850;2023-07-22T18:37:55;2.33;;;2.10;;
51602;SDS011;37954;51.980;5.850;2023-07-22T18:42:07;3.00;;;2.03;;
51602;SDS011;37954;51.980;5.850;2023-07-22T18:46:19;4.07;;;2.45;;
51602;SDS011;37954;51.980;5.850;2023-07-22T18:50:32;4.13;;;2.30;;
51602;SDS011;37954;51.980;5.850;2023-07-22T18:54:44;2.30;;;2.00;;
51602;SDS011;37954;51.980;5.850;2023-07-22T18:58:55;2.85;;;2.08;;
51602;SDS011;37954;51.980;5.850;2023-07-22T19:03:07;4.47;;;1.88;;
51602;SDS011;37954;51.980;5.850;2023-07-22T19:07:19;2.70;;;2.20;;
51602;SDS011;37954;51.980;5.850;2023-07-22T19:11:31;3.60;;;2.35;;
51602;SDS011;37954;51.980;5.850;2023-07-22T19:15:46;7.45;;;2.90;;
51602;SDS011;37954;51.980;5.850;2023-07-22T19:19:59;3.60;;;2.22;;
51602;SDS011;37954;51.980;5.850;2023-07-22T19:24:11;2.83;;;2.28;;
51602;SDS011;37954;51.980;5.850;2023-07-22T19:28:23;4.40;;;2.47;;
51602;SDS011;37954;51.980;5.850;2023-07-22T19:32:34;3.60;;;2.50;;
51602;SDS011;37954;51.980;5.850;2023-07-22T19:36:51;3.83;;;2.28;;
51602;SDS011;37954;51.980;5.850;2023-07-22T19:41:04;5.93;;;2.55;;
51602;SDS011;37954;51.980;5.850;2023-07-22T19:45:20;3.05;;;2.30;;
51602;SDS011;37954;51.980;5.850;2023-07-22T19:49:32;4.47;;;2.55;;
51602;SDS011;37954;51.980;5.850;2023-07-22T19:53:44;3.20;;;2.55;;
51602;SDS011;37954;51.980;5.850;2023-07-22T19:57:58;4.15;;;2.50;;
51602;SDS011;37954;51.980;5.850;2023-07-22T20:02:11;4.55;;;2.42;;
51602;SDS011;37954;51.980;5.850;2023-07-22T20:06:22;4.90;;;2.67;;
51602;SDS011;37954;51.980;5.850;2023-07-22T20:10:34;8.55;;;2.90;;
51602;SDS011;37954;51.980;5.850;2023-07-22T20:14:46;4.32;;;2.83;;
51602;SDS011;37954;51.980;5.850;2023-07-22T20:18:58;4.45;;;2.75;;
51602;SDS011;37954;51.980;5.850;2023-07-22T20:23:10;3.97;;;2.72;;
51602;SDS011;37954;51.980;5.850;2023-07-22T20:27:22;3.80;;;2.78;;
51602;SDS011;37954;51.980;5.850;2023-07-22T20:31:33;6.15;;;3.28;;
51602;SDS011;37954;51.980;5.850;2023-07-22T20:35:45;2.88;;;2.40;;
51602;SDS011;37954;51.980;5.850;2023-07-22T20:39:57;3.08;;;2.40;;
51602;SDS011;37954;51.980;5.850;2023-07-22T20:44:09;3.00;;;2.55;;
51602;SDS011;37954;51.980;5.850;2023-07-22T20:48:20;4.15;;;2.67;;
51602;SDS011;37954;51.980;5.850;2023-07-22T20:52:32;3.03;;;2.35;;
51602;SDS011;37954;51.980;5.850;2023-07-22T20:56:45;3.90;;;3.03;;
51602;SDS011;37954;51.980;5.850;2023-07-22T21:00:59;5.70;;;3.10;;
51602;SDS011;37954;51.980;5.850;2023-07-22T21:05:12;5.00;;;2.63;;
51602;SDS011;37954;51.980;5.850;2023-07-22T21:09:24;4.32;;;2.83;;
51602;SDS011;37954;51.980;5.850;2023-07-22T21:13:35;3.42;;;2.80;;
51602;SDS011;37954;51.980;5.850;2023-07-22T21:17:48;7.43;;;3.33;;
51602;SDS011;37954;51.980;5.850;2023-07-22T21:22:00;3.90;;;3.20;;
51602;SDS011;37954;51.980;5.850;2023-07-22T21:26:15;5.05;;;3.35;;
51602;SDS011;37954;51.980;5.850;2023-07-22T21:30:26;6.10;;;3.75;;
51602;SDS011;37954;51.980;5.850;2023-07-22T21:34:38;7.28;;;3.67;;
51602;SDS011;37954;51.980;5.850;2023-07-22T21:38:53;4.53;;;3.13;;
51602;SDS011;37954;51.980;5.850;2023-07-22T21:43:05;7.97;;;3.63;;
51602;SDS011;37954;51.980;5.850;2023-07-22T21:47:17;5.78;;;3.45;;
51602;SDS011;37954;51.980;5.850;2023-07-22T21:51:28;5.38;;;3.70;;
51602;SDS011;37954;51.980;5.850;2023-07-22T21:55:41;5.13;;;3.40;;
51602;SDS011;37954;51.980;5.850;2023-07-22T21:59:52;6.88;;;3.85;;
51602;SDS011;37954;51.980;5.850;2023-07-22T22:04:04;6.38;;;3.67;;
51602;SDS011;37954;51.980;5.850;2023-07-22T22:08:18;8.05;;;3.38;;
51602;SDS011;37954;51.980;5.850;2023-07-22T22:12:29;5.10;;;3.67;;
51602;SDS011;37954;51.980;5.850;2023-07-22T22:16:41;5.05;;;3.60;;
51602;SDS011;37954;51.980;5.850;2023-07-22T22:20:53;5.43;;;4.03;;
51602;SDS011;37954;51.980;5.850;2023-07-22T22:25:05;5.95;;;3.70;;
51602;SDS011;37954;51.980;5.850;2023-07-22T22:29:17;5.82;;;3.78;;
51602;SDS011;37954;51.980;5.850;2023-07-22T22:33:29;5.13;;;3.67;;
51602;SDS011;37954;51.980;5.850;2023-07-22T22:37:40;4.45;;;3.65;;
51602;SDS011;37954;51.980;5.850;2023-07-22T22:41:52;6.85;;;3.85;;
51602;SDS011;37954;51.980;5.850;2023-07-22T22:46:04;4.63;;;3.92;;
51602;SDS011;37954;51.980;5.850;2023-07-22T22:50:16;5.63;;;3.53;;
51602;SDS011;37954;51.980;5.850;2023-07-22T22:54:31;5.70;;;4.03;;
51602;SDS011;37954;51.980;5.850;2023-07-22T22:58:43;4.40;;;3.70;;
51602;SDS011;37954;51.980;5.850;2023-07-22T23:02:55;6.03;;;3.83;;
51602;SDS011;37954;51.980;5.850;2023-07-22T23:07:07;4.82;;;4.07;;
51602;SDS011;37954;51.980;5.850;2023-07-22T23:11:19;5.80;;;4.15;;
51602;SDS011;37954;51.980;5.850;2023-07-22T23:15:33;5.00;;;4.10;;
51602;SDS011;37954;51.980;5.850;2023-07-22T23:19:45;6.20;;;3.80;;
51602;SDS011;37954;51.980;5.850;2023-07-22T23:23:57;4.68;;;3.70;;
51602;SDS011;37954;51.980;5.850;2023-07-22T23:28:09;4.63;;;3.55;;
51602;SDS011;37954;51.980;5.850;2023-07-22T23:32:21;6.95;;;4.45;;
51602;SDS011;37954;51.980;5.850;2023-07-22T23:36:33;5.50;;;3.90;;
51602;SDS011;37954;51.980;5.850;2023-07-22T23:40:46;4.75;;;3.63;;
51602;SDS011;37954;51.980;5.850;2023-07-22T23:44:59;4.78;;;3.88;;
51602;SDS011;37954;51.980;5.850;2023-07-22T23:49:11;5.57;;;4.53;;
51602;SDS011;37954;51.980;5.850;2023-07-22T23:53:23;6.22;;;4.03;;
51602;SDS011;37954;51.980;5.850;2023-07-22T23:57:35;6.28;;;4.40;;
